sensor_id;sensor_type;location;lat;lon;timestamp;temperature;humidity
45983;DHT22;31711;47.158;7.346;2024-01-10T00:02:24;-2.80;99.90
45983;DHT22;31711;47.158;7.346;2024-01-10T00:04:50;-2.90;99.90
45983;DHT22;31711;47.158;7.346;2024-01-10T00:07:16;-2.90;99.90
45983;DHT22;31711;47.158;7.346;2024-01-10T00:09:42;-2.90;99.90
45983;DHT22;31711;47.158;7.346;2024-01-10T00:12:08;-2.80;99.90
45983;DHT22;31711;47.158;7.346;2024-01-10T00:14:34;-2.80;99.90
45983;DHT22;31711;47.158;7.346;2024-01-10T00:17:01;-2.80;99.90
45983;DHT22;31711;47.158;7.346;2024-01-10T00:19:27;-2.80;99.90
45983;DHT22;31711;47.158;7.346;2024-01-10T00:21:53;-2.80;99.90
45983;DHT22;31711;47.158;7.346;2024-01-10T00:24:18;-2.70;99.90
45983;DHT22;31711;47.158;7.346;2024-01-10T00:26:44;-2.60;99.90
45983;DHT22;31711;47.158;7.346;2024-01-10T00:29:11;-2.60;99.90
45983;DHT22;31711;47.158;7.346;2024-01-10T00:31:37;-2.50;99.90
45983;DHT22;31711;47.158;7.346;2024-01-10T00:34:03;-2.50;99.90
45983;DHT22;31711;47.158;7.346;2024-01-10T00:36:29;-2.50;99.90
45983;DHT22;31711;47.158;7.346;2024-01-10T00:38:55;-2.50;99.90
45983;DHT22;31711;47.158;7.346;2024-01-10T00:41:21;-2.50;99.90
45983;DHT22;31711;47.158;7.346;2024-01-10T00:43:47;-2.50;99.90
45983;DHT22;31711;47.158;7.346;2024-01-10T00:46:13;-2.50;99.90
45983;DHT22;31711;47.158;7.346;2024-01-10T00:48:39;-2.60;99.90
45983;DHT22;31711;47.158;7.346;2024-01-10T00:51:05;-2.60;99.90
45983;DHT22;31711;47.158;7.346;2024-01-10T00:53:37;-2.50;99.90
45983;DHT22;31711;47.158;7.346;2024-01-10T00:56:06;-2.40;99.90
45983;DHT22;31711;47.158;7.346;2024-01-10T00:58:32;-2.50;99.90
45983;DHT22;31711;47.158;7.346;2024-01-10T01:00:58;-2.40;99.90
45983;DHT22;31711;47.158;7.346;2024-01-10T01:03:24;-2.30;99.90
45983;DHT22;31711;47.158;7.346;2024-01-10T01:05:50;-2.30;99.90
45983;DHT22;31711;47.158;7.346;2024-01-10T01:08:16;-2.20;99.90
45983;DHT22;31711;47.158;7.346;2024-01-10T01:10:42;-2.10;99.90
45983;DHT22;31711;47.158;7.346;2024-01-10T01:13:08;-2.20;99.90
45983;DHT22;31711;47.158;7.346;2024-01-10T01:15:34;-2.10;99.90
45983;DHT22;31711;47.158;7.346;2024-01-10T01:18:00;-2.10;99.90
45983;DHT22;31711;47.158;7.346;2024-01-10T01:20:26;-2.00;99.90
45983;DHT22;31711;47.158;7.346;2024-01-10T01:22:52;-2.10;99.90
45983;DHT22;31711;47.158;7.346;2024-01-10T01:25:18;-2.10;99.90
45983;DHT22;31711;47.158;7.346;2024-01-10T01:27:44;-2.20;99.90
45983;DHT22;31711;47.158;7.346;2024-01-10T01:30:11;-2.20;99.90
45983;DHT22;31711;47.158;7.346;2024-01-10T01:32:37;-2.20;99.90
45983;DHT22;31711;47.158;7.346;2024-01-10T01:35:04;-2.10;99.90
45983;DHT22;31711;47.158;7.346;2024-01-10T01:37:30;-2.10;99.90
45983;DHT22;31711;47.158;7.346;2024-01-10T01:39:56;-2.00;99.90
45983;DHT22;31711;47.158;7.346;2024-01-10T01:42:22;-1.90;99.90
45983;DHT22;31711;47.158;7.346;2024-01-10T01:44:47;-2.10;99.90
45983;DHT22;31711;47.158;7.346;2024-01-10T01:47:14;-2.30;99.90
45983;DHT22;31711;47.158;7.346;2024-01-10T01:49:40;-2.20;99.90
45983;DHT22;31711;47.158;7.346;2024-01-10T01:52:09;-2.20;99.90
45983;DHT22;31711;47.158;7.346;2024-01-10T01:54:36;-2.20;99.90
45983;DHT22;31711;47.158;7.346;2024-01-10T01:57:02;-2.10;99.90
45983;DHT22;31711;47.158;7.346;2024-01-10T01:59:28;-2.10;99.90
45983;DHT22;31711;47.158;7.346;2024-01-10T02:01:55;-2.00;99.90
45983;DHT22;31711;47.158;7.346;2024-01-10T02:04:24;-2.00;99.90
45983;DHT22;31711;47.158;7.346;2024-01-10T02:06:51;-2.00;99.90
45983;DHT22;31711;47.158;7.346;2024-01-10T02:09:17;-1.90;99.90
45983;DHT22;31711;47.158;7.346;2024-01-10T02:11:43;-1.90;99.90
45983;DHT22;31711;47.158;7.346;2024-01-10T02:14:10;-1.90;99.90
45983;DHT22;31711;47.158;7.346;2024-01-10T02:16:36;-2.10;99.90
45983;DHT22;31711;47.158;7.346;2024-01-10T02:19:17;-2.20;99.90
45983;DHT22;31711;47.158;7.346;2024-01-10T02:21:43;-2.20;99.90
45983;DHT22;31711;47.158;7.346;2024-01-10T02:24:09;-2.10;99.90
45983;DHT22;31711;47.158;7.346;2024-01-10T02:26:35;-2.10;99.90
45983;DHT22;31711;47.158;7.346;2024-01-10T02:29:01;-2.00;99.90
45983;DHT22;31711;47.158;7.346;2024-01-10T02:31:27;-2.00;99.90
45983;DHT22;31711;47.158;7.346;2024-01-10T02:33:53;-2.00;99.90
45983;DHT22;31711;47.158;7.346;2024-01-10T02:36:19;-2.10;99.90
45983;DHT22;31711;47.158;7.346;2024-01-10T02:38:45;-2.00;99.90
45983;DHT22;31711;47.158;7.346;2024-01-10T02:41:11;-1.90;99.90
45983;DHT22;31711;47.158;7.346;2024-01-10T02:43:37;-1.80;99.90
45983;DHT22;31711;47.158;7.346;2024-01-10T02:46:03;-1.90;99.90
45983;DHT22;31711;47.158;7.346;2024-01-10T02:48:29;-1.90;99.90
45983;DHT22;31711;47.158;7.346;2024-01-10T02:50:55;-1.80;99.90
45983;DHT22;31711;47.158;7.346;2024-01-10T02:53:21;-1.80;99.90
45983;DHT22;31711;47.158;7.346;2024-01-10T02:55:47;-1.70;99.90
45983;DHT22;31711;47.158;7.346;2024-01-10T02:58:14;-1.70;99.90
45983;DHT22;31711;47.158;7.346;2024-01-10T03:00:40;-1.70;99.90
45983;DHT22;31711;47.158;7.346;2024-01-10T03:03:06;-1.60;99.90
45983;DHT22;31711;47.158;7.346;2024-01-10T03:05:32;-1.80;99.90
45983;DHT22;31711;47.158;7.346;2024-01-10T03:07:58;-1.80;99.90
45983;DHT22;31711;47.158;7.346;2024-01-10T03:10:24;-1.80;99.90
45983;DHT22;31711;47.158;7.346;2024-01-10T03:12:50;-1.90;99.90
45983;DHT22;31711;47.158;7.346;2024-01-10T03:15:16;-1.90;99.90
45983;DHT22;31711;47.158;7.346;2024-01-10T03:17:42;-1.90;99.90
45983;DHT22;31711;47.158;7.346;2024-01-10T03:20:08;-1.90;99.90
45983;DHT22;31711;47.158;7.346;2024-01-10T03:22:35;-1.90;99.90
45983;DHT22;31711;47.158;7.346;2024-01-10T03:25:01;-2.00;99.90
45983;DHT22;31711;47.158;7.346;2024-01-10T03:27:27;-1.90;99.90
45983;DHT22;31711;47.158;7.346;2024-01-10T03:29:52;-1.90;99.90
45983;DHT22;31711;47.158;7.346;2024-01-10T03:32:18;-1.90;99.90
45983;DHT22;31711;47.158;7.346;2024-01-10T03:34:44;-1.90;99.90
45983;DHT22;31711;47.158;7.346;2024-01-10T03:37:10;-2.00;99.90
45983;DHT22;31711;47.158;7.346;2024-01-10T03:39:36;-2.10;99.90
45983;DHT22;31711;47.158;7.346;2024-01-10T03:42:02;-2.10;99.90
45983;DHT22;31711;47.158;7.346;2024-01-10T03:44:28;-2.10;99.90
45983;DHT22;31711;47.158;7.346;2024-01-10T03:46:54;-2.00;99.90
45983;DHT22;31711;47.158;7.346;2024-01-10T03:49:20;-1.90;99.90
45983;DHT22;31711;47.158;7.346;2024-01-10T03:51:46;-1.80;99.90
45983;DHT22;31711;47.158;7.346;2024-01-10T03:54:12;-1.70;99.90
45983;DHT22;31711;47.158;7.346;2024-01-10T03:56:38;-1.70;99.90
45983;DHT22;31711;47.158;7.346;2024-01-10T03:59:04;-1.80;99.90
45983;DHT22;31711;47.158;7.346;2024-01-10T04:01:30;-1.90;99.90
45983;DHT22;31711;47.158;7.346;2024-01-10T04:03:56;-2.00;99.90
45983;DHT22;31711;47.158;7.346;2024-01-10T04:06:22;-2.00;99.90
45983;DHT22;31711;47.158;7.346;2024-01-10T04:08:48;-2.10;99.90
45983;DHT22;31711;47.158;7.346;2024-01-10T04:11:14;-2.00;99.90
45983;DHT22;31711;47.158;7.346;2024-01-10T04:13:40;-2.00;99.90
45983;DHT22;31711;47.158;7.346;2024-01-10T04:16:06;-2.10;99.90
45983;DHT22;31711;47.158;7.346;2024-01-10T04:18:32;-2.10;99.90
45983;DHT22;31711;47.158;7.346;2024-01-10T04:20:58;-1.90;99.90
45983;DHT22;31711;47.158;7.346;2024-01-10T04:23:24;-1.90;99.90
45983;DHT22;31711;47.158;7.346;2024-01-10T04:25:50;-2.00;99.90
45983;DHT22;31711;47.158;7.346;2024-01-10T04:28:16;-2.00;99.90
45983;DHT22;31711;47.158;7.346;2024-01-10T04:30:42;-2.00;99.90
45983;DHT22;31711;47.158;7.346;2024-01-10T04:33:08;-2.00;99.90
45983;DHT22;31711;47.158;7.346;2024-01-10T04:35:34;-1.90;99.90
45983;DHT22;31711;47.158;7.346;2024-01-10T04:38:00;-1.90;99.90
45983;DHT22;31711;47.158;7.346;2024-01-10T04:40:26;-1.90;99.90
45983;DHT22;31711;47.158;7.346;2024-01-10T04:42:52;-2.10;99.90
45983;DHT22;31711;47.158;7.346;2024-01-10T04:45:18;-2.00;99.90
45983;DHT22;31711;47.158;7.346;2024-01-10T04:47:44;-2.00;99.90
45983;DHT22;31711;47.158;7.346;2024-01-10T04:50:10;-2.00;99.90
45983;DHT22;31711;47.158;7.346;2024-01-10T04:52:36;-2.10;99.90
45983;DHT22;31711;47.158;7.346;2024-01-10T04:55:02;-2.10;99.90
45983;DHT22;31711;47.158;7.346;2024-01-10T04:57:31;-2.10;99.90
45983;DHT22;31711;47.158;7.346;2024-01-10T04:59:57;-2.10;99.90
45983;DHT22;31711;47.158;7.346;2024-01-10T05:02:24;-2.10;99.90
45983;DHT22;31711;47.158;7.346;2024-01-10T05:04:50;-2.10;99.90
45983;DHT22;31711;47.158;7.346;2024-01-10T05:07:16;-2.20;99.90
45983;DHT22;31711;47.158;7.346;2024-01-10T05:09:42;-2.20;99.90
45983;DHT22;31711;47.158;7.346;2024-01-10T05:12:08;-2.10;99.90
45983;DHT22;31711;47.158;7.346;2024-01-10T05:14:34;-2.00;99.90
45983;DHT22;31711;47.158;7.346;2024-01-10T05:17:00;-2.10;99.90
45983;DHT22;31711;47.158;7.346;2024-01-10T05:19:26;-2.10;99.90
45983;DHT22;31711;47.158;7.346;2024-01-10T05:21:52;-2.10;99.90
45983;DHT22;31711;47.158;7.346;2024-01-10T05:24:18;-2.10;99.90
45983;DHT22;31711;47.158;7.346;2024-01-10T05:26:45;-2.40;99.90
45983;DHT22;31711;47.158;7.346;2024-01-10T05:29:11;-2.60;99.90
45983;DHT22;31711;47.158;7.346;2024-01-10T05:31:37;-2.70;99.90
45983;DHT22;31711;47.158;7.346;2024-01-10T05:34:02;-2.90;99.90
45983;DHT22;31711;47.158;7.346;2024-01-10T05:36:30;-3.00;99.90
45983;DHT22;31711;47.158;7.346;2024-01-10T05:38:56;-3.10;99.90
45983;DHT22;31711;47.158;7.346;2024-01-10T05:41:22;-3.10;99.90
45983;DHT22;31711;47.158;7.346;2024-01-10T05:43:48;-3.20;99.90
45983;DHT22;31711;47.158;7.346;2024-01-10T05:46:14;-3.30;99.90
45983;DHT22;31711;47.158;7.346;2024-01-10T05:48:42;-3.30;99.90
45983;DHT22;31711;47.158;7.346;2024-01-10T05:51:07;-3.40;99.90
45983;DHT22;31711;47.158;7.346;2024-01-10T05:53:33;-3.40;99.90
45983;DHT22;31711;47.158;7.346;2024-01-10T05:55:59;-3.40;99.90
45983;DHT22;31711;47.158;7.346;2024-01-10T05:58:26;-3.50;99.90
45983;DHT22;31711;47.158;7.346;2024-01-10T06:00:52;-3.50;99.90
45983;DHT22;31711;47.158;7.346;2024-01-10T06:03:18;-3.50;99.90
45983;DHT22;31711;47.158;7.346;2024-01-10T06:05:44;-3.50;99.90
45983;DHT22;31711;47.158;7.346;2024-01-10T06:08:09;-3.40;99.90
45983;DHT22;31711;47.158;7.346;2024-01-10T06:10:35;-3.40;99.90
45983;DHT22;31711;47.158;7.346;2024-01-10T06:13:01;-3.40;99.90
45983;DHT22;31711;47.158;7.346;2024-01-10T06:15:27;-3.40;99.90
45983;DHT22;31711;47.158;7.346;2024-01-10T06:17:54;-3.40;99.90
45983;DHT22;31711;47.158;7.346;2024-01-10T06:20:20;-3.30;99.90
45983;DHT22;31711;47.158;7.346;2024-01-10T06:22:46;-3.30;99.90
45983;DHT22;31711;47.158;7.346;2024-01-10T06:25:12;-3.20;99.90
45983;DHT22;31711;47.158;7.346;2024-01-10T06:27:38;-3.20;99.90
45983;DHT22;31711;47.158;7.346;2024-01-10T06:30:05;-3.20;99.90
45983;DHT22;31711;47.158;7.346;2024-01-10T06:32:33;-3.20;99.90
45983;DHT22;31711;47.158;7.346;2024-01-10T06:34:59;-3.20;99.90
45983;DHT22;31711;47.158;7.346;2024-01-10T06:37:28;-3.30;99.90
45983;DHT22;31711;47.158;7.346;2024-01-10T06:39:54;-3.30;99.90
45983;DHT22;31711;47.158;7.346;2024-01-10T06:42:20;-3.40;99.90
45983;DHT22;31711;47.158;7.346;2024-01-10T06:44:46;-3.40;99.90
45983;DHT22;31711;47.158;7.346;2024-01-10T06:47:12;-3.50;99.90
45983;DHT22;31711;47.158;7.346;2024-01-10T06:49:38;-3.50;99.90
45983;DHT22;31711;47.158;7.346;2024-01-10T06:52:04;-3.50;99.90
45983;DHT22;31711;47.158;7.346;2024-01-10T06:54:32;-3.50;99.90
45983;DHT22;31711;47.158;7.346;2024-01-10T06:56:58;-3.50;99.90
45983;DHT22;31711;47.158;7.346;2024-01-10T06:59:24;-3.60;99.90
45983;DHT22;31711;47.158;7.346;2024-01-10T07:01:53;-3.50;99.90
45983;DHT22;31711;47.158;7.346;2024-01-10T07:04:22;-3.50;99.90
45983;DHT22;31711;47.158;7.346;2024-01-10T07:06:50;-3.50;99.90
45983;DHT22;31711;47.158;7.346;2024-01-10T07:09:16;-3.50;99.90
45983;DHT22;31711;47.158;7.346;2024-01-10T07:11:48;-3.60;99.90
45983;DHT22;31711;47.158;7.346;2024-01-10T07:14:15;-3.50;99.90
45983;DHT22;31711;47.158;7.346;2024-01-10T07:16:41;-3.30;99.90
45983;DHT22;31711;47.158;7.346;2024-01-10T07:19:11;-3.30;99.90
45983;DHT22;31711;47.158;7.346;2024-01-10T07:21:41;-3.20;99.90
45983;DHT22;31711;47.158;7.346;2024-01-10T07:24:07;-3.10;99.90
45983;DHT22;31711;47.158;7.346;2024-01-10T07:26:37;-3.00;99.90
45983;DHT22;31711;47.158;7.346;2024-01-10T07:29:04;-2.90;99.90
45983;DHT22;31711;47.158;7.346;2024-01-10T07:31:30;-2.80;99.90
45983;DHT22;31711;47.158;7.346;2024-01-10T07:33:59;-2.70;99.90
45983;DHT22;31711;47.158;7.346;2024-01-10T07:36:25;-2.60;99.90
45983;DHT22;31711;47.158;7.346;2024-01-10T07:38:52;-2.40;99.90
45983;DHT22;31711;47.158;7.346;2024-01-10T07:41:19;-2.30;99.90
45983;DHT22;31711;47.158;7.346;2024-01-10T07:43:45;-2.20;99.90
45983;DHT22;31711;47.158;7.346;2024-01-10T07:46:11;-2.20;99.90
45983;DHT22;31711;47.158;7.346;2024-01-10T07:48:37;-2.00;99.90
45983;DHT22;31711;47.158;7.346;2024-01-10T07:51:03;-1.90;99.90
45983;DHT22;31711;47.158;7.346;2024-01-10T07:53:30;-1.80;99.90
45983;DHT22;31711;47.158;7.346;2024-01-10T07:55:56;-1.70;99.90
45983;DHT22;31711;47.158;7.346;2024-01-10T07:58:22;-1.70;99.90
45983;DHT22;31711;47.158;7.346;2024-01-10T08:00:48;-1.60;99.90
45983;DHT22;31711;47.158;7.346;2024-01-10T08:03:14;-1.50;99.90
45983;DHT22;31711;47.158;7.346;2024-01-10T08:05:40;-1.60;99.90
45983;DHT22;31711;47.158;7.346;2024-01-10T08:08:06;-1.60;99.90
45983;DHT22;31711;47.158;7.346;2024-01-10T08:10:32;-1.50;99.90
45983;DHT22;31711;47.158;7.346;2024-01-10T08:12:58;-1.50;99.90
45983;DHT22;31711;47.158;7.346;2024-01-10T08:15:25;-1.60;99.90
45983;DHT22;31711;47.158;7.346;2024-01-10T08:17:51;-1.60;99.90
45983;DHT22;31711;47.158;7.346;2024-01-10T08:20:18;-1.70;99.90
45983;DHT22;31711;47.158;7.346;2024-01-10T08:22:47;-1.80;99.90
45983;DHT22;31711;47.158;7.346;2024-01-10T08:25:14;-1.80;99.90
45983;DHT22;31711;47.158;7.346;2024-01-10T08:27:41;-1.80;99.90
45983;DHT22;31711;47.158;7.346;2024-01-10T08:30:08;-1.80;99.90
45983;DHT22;31711;47.158;7.346;2024-01-10T08:32:35;-1.70;99.90
45983;DHT22;31711;47.158;7.346;2024-01-10T08:35:03;-1.60;99.90
45983;DHT22;31711;47.158;7.346;2024-01-10T08:37:36;-1.50;99.90
45983;DHT22;31711;47.158;7.346;2024-01-10T08:40:03;-1.40;99.90
45983;DHT22;31711;47.158;7.346;2024-01-10T08:42:35;-1.20;99.90
45983;DHT22;31711;47.158;7.346;2024-01-10T08:45:01;-1.10;99.90
45983;DHT22;31711;47.158;7.346;2024-01-10T08:47:27;-1.00;99.90
45983;DHT22;31711;47.158;7.346;2024-01-10T08:49:57;-1.00;99.90
45983;DHT22;31711;47.158;7.346;2024-01-10T08:52:22;-1.00;99.90
45983;DHT22;31711;47.158;7.346;2024-01-10T08:54:48;-0.90;99.90
45983;DHT22;31711;47.158;7.346;2024-01-10T08:57:14;-0.90;99.90
45983;DHT22;31711;47.158;7.346;2024-01-10T08:59:44;-0.90;99.90
45983;DHT22;31711;47.158;7.346;2024-01-10T09:02:10;-1.00;99.90
45983;DHT22;31711;47.158;7.346;2024-01-10T09:04:36;-0.80;99.90
45983;DHT22;31711;47.158;7.346;2024-01-10T09:07:02;-1.00;99.90
45983;DHT22;31711;47.158;7.346;2024-01-10T09:09:28;-0.90;99.90
45983;DHT22;31711;47.158;7.346;2024-01-10T09:11:54;-0.80;99.90
45983;DHT22;31711;47.158;7.346;2024-01-10T09:14:20;-0.90;99.90
45983;DHT22;31711;47.158;7.346;2024-01-10T09:16:46;-0.90;99.90
45983;DHT22;31711;47.158;7.346;2024-01-10T09:19:12;-0.70;99.90
45983;DHT22;31711;47.158;7.346;2024-01-10T09:21:38;-0.60;99.90
45983;DHT22;31711;47.158;7.346;2024-01-10T09:24:04;-0.60;99.90
45983;DHT22;31711;47.158;7.346;2024-01-10T09:26:34;-0.60;99.90
45983;DHT22;31711;47.158;7.346;2024-01-10T09:29:00;-0.40;99.90
45983;DHT22;31711;47.158;7.346;2024-01-10T09:31:26;-0.60;99.90
45983;DHT22;31711;47.158;7.346;2024-01-10T09:33:52;-0.70;99.90
45983;DHT22;31711;47.158;7.346;2024-01-10T09:36:18;-0.60;99.90
45983;DHT22;31711;47.158;7.346;2024-01-10T09:38:44;-0.50;99.90
45983;DHT22;31711;47.158;7.346;2024-01-10T09:41:11;-0.60;99.90
45983;DHT22;31711;47.158;7.346;2024-01-10T09:43:39;-0.80;99.90
45983;DHT22;31711;47.158;7.346;2024-01-10T09:46:07;-0.80;99.90
45983;DHT22;31711;47.158;7.346;2024-01-10T09:48:33;-0.80;99.90
45983;DHT22;31711;47.158;7.346;2024-01-10T09:50:59;-0.70;99.90
45983;DHT22;31711;47.158;7.346;2024-01-10T09:53:26;-0.60;99.90
45983;DHT22;31711;47.158;7.346;2024-01-10T09:55:52;-0.20;99.90
45983;DHT22;31711;47.158;7.346;2024-01-10T09:58:25;0.20;99.90
45983;DHT22;31711;47.158;7.346;2024-01-10T10:00:51;0.40;99.90
45983;DHT22;31711;47.158;7.346;2024-01-10T10:03:18;0.40;99.90
45983;DHT22;31711;47.158;7.346;2024-01-10T10:05:45;0.40;99.90
45983;DHT22;31711;47.158;7.346;2024-01-10T10:08:12;0.70;99.90
45983;DHT22;31711;47.158;7.346;2024-01-10T10:10:43;0.80;99.90
45983;DHT22;31711;47.158;7.346;2024-01-10T10:13:11;0.60;99.90
45983;DHT22;31711;47.158;7.346;2024-01-10T10:16:00;0.70;99.90
45983;DHT22;31711;47.158;7.346;2024-01-10T10:18:27;0.60;99.90
45983;DHT22;31711;47.158;7.346;2024-01-10T10:21:13;0.80;99.90
45983;DHT22;31711;47.158;7.346;2024-01-10T10:23:43;0.70;99.90
45983;DHT22;31711;47.158;7.346;2024-01-10T10:26:16;1.00;99.90
45983;DHT22;31711;47.158;7.346;2024-01-10T10:28:49;1.00;99.90
45983;DHT22;31711;47.158;7.346;2024-01-10T10:31:17;0.80;99.90
45983;DHT22;31711;47.158;7.346;2024-01-10T10:33:44;0.80;99.90
45983;DHT22;31711;47.158;7.346;2024-01-10T10:36:10;0.80;99.90
45983;DHT22;31711;47.158;7.346;2024-01-10T10:38:39;0.70;99.90
45983;DHT22;31711;47.158;7.346;2024-01-10T10:41:06;0.80;99.90
45983;DHT22;31711;47.158;7.346;2024-01-10T10:43:37;1.00;99.90
45983;DHT22;31711;47.158;7.346;2024-01-10T10:46:09;0.90;99.90
45983;DHT22;31711;47.158;7.346;2024-01-10T10:48:36;1.00;99.90
45983;DHT22;31711;47.158;7.346;2024-01-10T10:51:06;1.00;99.90
45983;DHT22;31711;47.158;7.346;2024-01-10T10:53:43;0.90;99.90
45983;DHT22;31711;47.158;7.346;2024-01-10T10:56:12;1.00;99.90
45983;DHT22;31711;47.158;7.346;2024-01-10T10:58:40;1.30;99.90
45983;DHT22;31711;47.158;7.346;2024-01-10T11:01:07;1.70;99.90
45983;DHT22;31711;47.158;7.346;2024-01-10T11:03:35;2.00;99.90
45983;DHT22;31711;47.158;7.346;2024-01-10T11:06:03;2.20;99.90
45983;DHT22;31711;47.158;7.346;2024-01-10T11:08:36;1.90;99.90
45983;DHT22;31711;47.158;7.346;2024-01-10T11:11:06;1.60;99.90
45983;DHT22;31711;47.158;7.346;2024-01-10T11:24:31;1.70;99.90
45983;DHT22;31711;47.158;7.346;2024-01-10T11:27:18;1.90;99.90
45983;DHT22;31711;47.158;7.346;2024-01-10T11:29:46;1.80;99.90
45983;DHT22;31711;47.158;7.346;2024-01-10T11:32:16;1.90;99.90
45983;DHT22;31711;47.158;7.346;2024-01-10T11:35:18;2.00;99.90
45983;DHT22;31711;47.158;7.346;2024-01-10T11:37:45;1.90;99.90
45983;DHT22;31711;47.158;7.346;2024-01-10T11:40:12;2.10;99.90
45983;DHT22;31711;47.158;7.346;2024-01-10T11:42:45;2.50;99.90
45983;DHT22;31711;47.158;7.346;2024-01-10T11:45:36;2.40;99.90
45983;DHT22;31711;47.158;7.346;2024-01-10T11:48:02;2.20;99.90
45983;DHT22;31711;47.158;7.346;2024-01-10T11:50:29;2.20;99.90
45983;DHT22;31711;47.158;7.346;2024-01-10T11:52:56;2.40;99.90
45983;DHT22;31711;47.158;7.346;2024-01-10T11:55:50;2.10;99.90
45983;DHT22;31711;47.158;7.346;2024-01-10T11:58:17;2.30;99.90
45983;DHT22;31711;47.158;7.346;2024-01-10T12:00:44;2.20;99.90
45983;DHT22;31711;47.158;7.346;2024-01-10T12:03:13;2.20;99.90
45983;DHT22;31711;47.158;7.346;2024-01-10T12:05:40;2.20;99.90
45983;DHT22;31711;47.158;7.346;2024-01-10T12:08:10;2.30;99.90
45983;DHT22;31711;47.158;7.346;2024-01-10T12:10:36;2.10;99.90
45983;DHT22;31711;47.158;7.346;2024-01-10T12:13:06;2.30;99.90
45983;DHT22;31711;47.158;7.346;2024-01-10T12:15:32;2.30;99.90
45983;DHT22;31711;47.158;7.346;2024-01-10T12:17:58;2.20;99.90
45983;DHT22;31711;47.158;7.346;2024-01-10T12:20:24;2.00;99.90
45983;DHT22;31711;47.158;7.346;2024-01-10T12:22:50;2.00;99.90
45983;DHT22;31711;47.158;7.346;2024-01-10T12:25:16;2.10;99.90
45983;DHT22;31711;47.158;7.346;2024-01-10T12:27:42;2.30;99.90
45983;DHT22;31711;47.158;7.346;2024-01-10T12:30:08;2.20;99.90
45983;DHT22;31711;47.158;7.346;2024-01-10T12:32:34;1.90;99.90
45983;DHT22;31711;47.158;7.346;2024-01-10T12:35:04;1.70;99.90
45983;DHT22;31711;47.158;7.346;2024-01-10T12:37:31;1.90;99.90
45983;DHT22;31711;47.158;7.346;2024-01-10T12:39:57;1.60;99.90
45983;DHT22;31711;47.158;7.346;2024-01-10T12:42:23;1.60;99.90
45983;DHT22;31711;47.158;7.346;2024-01-10T12:44:49;1.50;99.90
45983;DHT22;31711;47.158;7.346;2024-01-10T12:47:23;1.40;99.90
45983;DHT22;31711;47.158;7.346;2024-01-10T12:49:50;1.40;99.90
45983;DHT22;31711;47.158;7.346;2024-01-10T12:52:16;1.30;99.90
45983;DHT22;31711;47.158;7.346;2024-01-10T12:54:43;1.30;99.90
45983;DHT22;31711;47.158;7.346;2024-01-10T12:57:09;1.50;99.90
45983;DHT22;31711;47.158;7.346;2024-01-10T12:59:35;1.70;99.90
45983;DHT22;31711;47.158;7.346;2024-01-10T13:02:01;2.00;99.90
45983;DHT22;31711;47.158;7.346;2024-01-10T13:04:27;2.10;99.90
45983;DHT22;31711;47.158;7.346;2024-01-10T13:06:53;2.10;99.90
45983;DHT22;31711;47.158;7.346;2024-01-10T13:09:19;2.10;99.90
45983;DHT22;31711;47.158;7.346;2024-01-10T13:11:46;2.30;99.90
45983;DHT22;31711;47.158;7.346;2024-01-10T13:14:12;2.00;99.90
45983;DHT22;31711;47.158;7.346;2024-01-10T13:16:38;1.90;99.90
45983;DHT22;31711;47.158;7.346;2024-01-10T13:19:04;2.00;99.90
45983;DHT22;31711;47.158;7.346;2024-01-10T13:21:30;2.10;99.90
45983;DHT22;31711;47.158;7.346;2024-01-10T13:23:56;1.90;99.90
45983;DHT22;31711;47.158;7.346;2024-01-10T13:26:22;2.00;99.90
45983;DHT22;31711;47.158;7.346;2024-01-10T13:28:49;2.00;99.90
45983;DHT22;31711;47.158;7.346;2024-01-10T13:31:15;2.00;99.90
45983;DHT22;31711;47.158;7.346;2024-01-10T13:33:41;1.80;99.90
45983;DHT22;31711;47.158;7.346;2024-01-10T13:36:07;1.70;99.90
45983;DHT22;31711;47.158;7.346;2024-01-10T13:38:33;1.60;99.90
45983;DHT22;31711;47.158;7.346;2024-01-10T13:41:00;1.40;99.90
45983;DHT22;31711;47.158;7.346;2024-01-10T13:43:27;1.20;99.90
45983;DHT22;31711;47.158;7.346;2024-01-10T13:45:54;1.30;99.90
45983;DHT22;31711;47.158;7.346;2024-01-10T13:48:20;1.20;99.90
45983;DHT22;31711;47.158;7.346;2024-01-10T13:50:46;1.20;99.90
45983;DHT22;31711;47.158;7.346;2024-01-10T13:53:12;1.10;99.90
45983;DHT22;31711;47.158;7.346;2024-01-10T13:55:39;1.20;99.90
45983;DHT22;31711;47.158;7.346;2024-01-10T13:58:04;1.10;99.90
45983;DHT22;31711;47.158;7.346;2024-01-10T14:00:31;1.00;99.90
45983;DHT22;31711;47.158;7.346;2024-01-10T14:02:57;1.00;99.90
45983;DHT22;31711;47.158;7.346;2024-01-10T14:05:30;1.00;99.90
45983;DHT22;31711;47.158;7.346;2024-01-10T14:07:56;1.20;99.90
45983;DHT22;31711;47.158;7.346;2024-01-10T14:10:22;1.10;99.90
45983;DHT22;31711;47.158;7.346;2024-01-10T14:12:48;1.10;99.90
45983;DHT22;31711;47.158;7.346;2024-01-10T14:15:14;1.20;99.90
45983;DHT22;31711;47.158;7.346;2024-01-10T14:17:41;0.90;99.90
45983;DHT22;31711;47.158;7.346;2024-01-10T14:20:07;0.80;99.90
45983;DHT22;31711;47.158;7.346;2024-01-10T14:22:37;0.80;99.90
45983;DHT22;31711;47.158;7.346;2024-01-10T14:25:03;0.90;99.90
45983;DHT22;31711;47.158;7.346;2024-01-10T14:27:31;0.90;99.90
45983;DHT22;31711;47.158;7.346;2024-01-10T14:29:57;0.70;99.90
45983;DHT22;31711;47.158;7.346;2024-01-10T14:32:24;0.60;99.90
45983;DHT22;31711;47.158;7.346;2024-01-10T14:34:51;0.60;99.90
45983;DHT22;31711;47.158;7.346;2024-01-10T14:37:17;0.60;99.90
45983;DHT22;31711;47.158;7.346;2024-01-10T14:39:43;0.50;99.90
45983;DHT22;31711;47.158;7.346;2024-01-10T14:42:09;0.60;99.90
45983;DHT22;31711;47.158;7.346;2024-01-10T14:44:35;0.60;99.90
45983;DHT22;31711;47.158;7.346;2024-01-10T14:47:01;0.50;99.90
45983;DHT22;31711;47.158;7.346;2024-01-10T14:49:28;0.50;99.90
45983;DHT22;31711;47.158;7.346;2024-01-10T14:51:54;0.40;99.90
45983;DHT22;31711;47.158;7.346;2024-01-10T14:54:20;0.40;99.90
45983;DHT22;31711;47.158;7.346;2024-01-10T14:56:47;0.40;99.90
45983;DHT22;31711;47.158;7.346;2024-01-10T14:59:15;0.20;99.90
45983;DHT22;31711;47.158;7.346;2024-01-10T15:01:45;0.20;99.90
45983;DHT22;31711;47.158;7.346;2024-01-10T15:04:12;0.10;99.90
45983;DHT22;31711;47.158;7.346;2024-01-10T15:06:43;0.00;99.90
45983;DHT22;31711;47.158;7.346;2024-01-10T15:09:09;0.00;99.90
45983;DHT22;31711;47.158;7.346;2024-01-10T15:11:36;0.10;99.90
45983;DHT22;31711;47.158;7.346;2024-01-10T15:14:04;0.10;99.90
45983;DHT22;31711;47.158;7.346;2024-01-10T15:16:29;0.00;99.90
45983;DHT22;31711;47.158;7.346;2024-01-10T15:18:55;0.00;99.90
45983;DHT22;31711;47.158;7.346;2024-01-10T15:21:21;0.10;99.90
45983;DHT22;31711;47.158;7.346;2024-01-10T15:23:48;0.00;99.90
45983;DHT22;31711;47.158;7.346;2024-01-10T15:26:17;0.00;99.90
45983;DHT22;31711;47.158;7.346;2024-01-10T15:28:44;0.00;99.90
45983;DHT22;31711;47.158;7.346;2024-01-10T15:31:20;-0.10;99.90
45983;DHT22;31711;47.158;7.346;2024-01-10T15:33:46;-0.20;99.90
45983;DHT22;31711;47.158;7.346;2024-01-10T15:36:14;-0.20;99.90
45983;DHT22;31711;47.158;7.346;2024-01-10T15:38:40;-0.10;99.90
45983;DHT22;31711;47.158;7.346;2024-01-10T15:41:07;-0.20;99.90
45983;DHT22;31711;47.158;7.346;2024-01-10T15:43:35;-0.20;99.90
45983;DHT22;31711;47.158;7.346;2024-01-10T15:46:01;-0.30;99.90